Time;durP1;ratioP1;P1;durP2;ratioP2;P2;SDS_P1;SDS_P2;PMS_P1;PMS_P2;Temp;Humidity;BMP_temperature;BMP_pressure;BME280_temperature;BME280_humidity;BME280_pressure;Samples;Min_cycle;Max_cycle;Signal;HPM_P1;HPM_P2
2022/11/25 00:01:21;;;;;;;11.83;5.77;;;3.10;1.00;;;;;;5026694;28;20180;-63
2022/11/25 00:03:51;;;;;;;22.90;6.50;;;3.30;1.00;;;;;;5026507;28;20704;-62
2022/11/25 00:06:32;;;;;;;16.43;6.17;;;3.40;1.00;;;;;;5029739;28;20202;-62
2022/11/25 00:09:07;;;;;;;13.03;5.30;;;3.50;1.00;;;;;;5023771;28;20251;-63
2022/11/25 00:11:36;;;;;;;22.87;5.53;;;3.60;99.90;;;;;;5025335;28;20222;-62
2022/11/25 00:14:03;;;;;;;18.40;6.07;;;3.70;99.90;;;;;;5028758;28;20279;-62
2022/11/25 00:16:31;;;;;;;21.63;4.97;;;3.80;99.90;;;;;;5027377;28;20769;-62
2022/11/25 00:18:58;;;;;;;23.27;4.90;;;4.00;99.90;;;;;;5032079;28;21891;-62
2022/11/25 00:21:28;;;;;;;19.87;4.97;;;4.10;99.90;;;;;;5032255;28;20840;-63
2022/11/25 00:23:57;;;;;;;14.77;4.63;;;4.20;1.00;;;;;;5033905;28;20184;-62
2022/11/25 00:26:26;;;;;;;19.77;5.27;;;4.20;1.00;;;;;;5035637;28;20262;-62
2022/11/25 00:28:53;;;;;;;16.47;4.50;;;4.30;1.00;;;;;;5018478;28;20317;-62
2022/11/25 00:31:26;;;;;;;14.50;4.80;;;4.20;1.00;;;;;;5032508;28;20273;-63
2022/11/25 00:33:53;;;;;;;12.97;4.83;;;4.20;1.00;;;;;;5046516;28;20231;-63
2022/11/25 00:36:28;;;;;;;17.03;4.40;;;4.10;1.00;;;;;;5031110;28;20213;-63
2022/11/25 00:38:58;;;;;;;16.97;5.40;;;4.10;1.00;;;;;;5032612;28;20715;-62
2022/11/25 00:47:08;;;;;;;15.00;5.20;;;4.20;1.00;;;;;;5033646;28;20192;-63
2022/11/25 00:49:37;;;;;;;11.23;3.50;;;4.30;1.00;;;;;;5034611;28;20195;-63
2022/11/25 00:52:04;;;;;;;15.00;3.70;;;4.30;1.00;;;;;;5031622;28;20623;-62
2022/11/25 00:54:31;;;;;;;18.57;4.40;;;4.20;1.00;;;;;;5024918;28;20321;-63
2022/11/25 00:56:59;;;;;;;10.33;3.50;;;4.10;1.00;;;;;;5031200;28;20558;-62
2022/11/25 00:59:28;;;;;;;13.67;3.77;;;4.00;1.00;;;;;;5033870;28;20203;-62
2022/11/25 01:01:58;;;;;;;12.53;3.57;;;4.00;1.00;;;;;;5017409;28;20207;-63
2022/11/25 01:04:26;;;;;;;15.07;4.07;;;4.00;1.00;;;;;;5031886;28;20669;-64
2022/11/25 01:06:55;;;;;;;9.30;4.43;;;4.10;1.00;;;;;;5028370;28;20804;-62
2022/11/25 01:09:22;;;;;;;16.60;4.73;;;4.00;1.00;;;;;;5027507;28;20293;-63
2022/11/25 01:11:50;;;;;;;10.30;4.30;;;4.00;1.00;;;;;;5024977;28;20262;-65
2022/11/25 01:14:18;;;;;;;13.13;4.33;;;4.20;10.80;;;;;;5031022;28;20220;-63
2022/11/25 01:16:46;;;;;;;14.60;4.83;;;4.20;1.00;;;;;;5012074;28;20199;-63
2022/11/25 01:19:14;;;;;;;15.47;4.80;;;4.20;1.00;;;;;;5026891;28;20235;-62
2022/11/25 01:21:41;;;;;;;14.17;5.13;;;4.20;1.00;;;;;;5031802;28;20283;-62
2022/11/25 01:24:12;;;;;;;14.03;4.47;;;4.20;1.00;;;;;;5025496;28;20984;-62
2022/11/25 01:26:40;;;;;;;17.90;4.23;;;4.20;1.00;;;;;;5029986;28;20203;-62
2022/11/25 01:29:15;;;;;;;18.17;4.27;;;4.40;1.00;;;;;;5028337;28;20235;-62
2022/11/25 01:31:44;;;;;;;16.83;3.87;;;4.40;1.00;;;;;;5029816;28;21305;-63
2022/11/25 01:34:17;;;;;;;18.47;3.47;;;4.50;1.00;;;;;;5032839;28;20188;-63
2022/11/25 01:36:44;;;;;;;12.23;3.50;;;4.60;1.00;;;;;;5007526;28;20245;-62
2022/11/25 01:39:22;;;;;;;14.20;3.80;;;4.80;1.00;;;;;;5021583;28;20620;-63
2022/11/25 01:41:57;;;;;;;13.83;3.70;;;5.10;1.00;;;;;;5032931;28;20653;-62
2022/11/25 01:44:29;;;;;;;19.90;3.97;;;5.30;1.00;;;;;;5027931;28;20636;-62
2022/11/25 01:47:17;;;;;;;12.33;3.50;;;5.60;1.00;;;;;;5013734;28;20291;-62
2022/11/25 01:50:09;;;;;;;13.57;4.10;;;5.50;99.90;;;;;;5010970;28;20503;-65
2022/11/25 01:52:47;;;;;;;15.20;3.43;;;5.60;99.90;;;;;;5046673;28;20222;-63
2022/11/25 01:55:37;;;;;;;19.30;3.60;;;5.70;99.90;;;;;;5031302;28;20325;-64
2022/11/25 01:58:19;;;;;;;16.57;4.10;;;5.80;99.90;;;;;;5032538;28;20275;-63
2022/11/25 02:00:50;;;;;;;14.33;3.70;;;5.80;99.90;;;;;;5044539;28;20239;-64
2022/11/25 02:03:24;;;;;;;16.90;3.73;;;5.90;99.90;;;;;;5021149;28;20710;-64
2022/11/25 02:06:28;;;;;;;13.83;3.50;;;5.90;99.90;;;;;;5016699;28;20548;-69
2022/11/25 02:09:03;;;;;;;11.37;3.70;;;5.90;99.90;;;;;;5032356;28;20703;-65
2022/11/25 02:11:32;;;;;;;14.43;3.40;;;6.00;99.90;;;;;;5015315;28;20196;-65
2022/11/25 02:14:01;;;;;;;11.63;3.70;;;6.00;99.90;;;;;;5031148;28;20700;-65
2022/11/25 02:16:28;;;;;;;14.70;4.93;;;6.00;99.90;;;;;;5035008;28;20200;-65
2022/11/25 02:18:55;;;;;;;10.77;3.37;;;6.00;99.90;;;;;;5027521;28;20230;-64
2022/11/25 02:21:32;;;;;;;16.17;4.13;;;6.00;99.90;;;;;;5027220;28;20196;-65
2022/11/25 02:24:09;;;;;;;12.27;3.20;;;6.10;99.90;;;;;;5029080;28;20236;-64
2022/11/25 02:26:36;;;;;;;16.73;4.30;;;6.20;99.90;;;;;;5033765;28;20211;-65
2022/11/25 02:29:05;;;;;;;10.93;3.30;;;6.30;99.90;;;;;;5029525;28;20238;-64
2022/11/25 02:31:31;;;;;;;11.43;3.20;;;6.50;99.90;;;;;;5029970;28;20279;-62
2022/11/25 02:33:59;;;;;;;14.07;3.10;;;6.70;99.90;;;;;;5031035;28;20684;-62
2022/11/25 02:36:26;;;;;;;7.97;3.23;;;6.70;99.90;;;;;;5030114;28;20227;-63
2022/11/25 02:38:58;;;;;;;12.40;3.10;;;6.80;99.90;;;;;;5027812;28;20718;-62
2022/11/25 02:41:45;;;;;;;12.80;3.50;;;7.00;98.80;;;;;;5022622;28;20506;-63
2022/11/25 02:44:12;;;;;;;10.37;3.40;;;7.00;82.60;;;;;;5029516;28;20250;-62
2022/11/25 02:46:39;;;;;;;14.30;3.20;;;7.00;83.00;;;;;;5034063;28;20199;-62
2022/11/25 02:49:06;;;;;;;9.37;3.23;;;7.30;46.50;;;;;;5030641;28;20200;-63
2022/11/25 02:51:37;;;;;;;14.13;2.97;;;7.50;15.90;;;;;;5011278;28;20208;-63
2022/11/25 02:54:06;;;;;;;15.10;3.83;;;7.50;5.40;;;;;;5005667;28;20224;-62
2022/11/25 02:56:34;;;;;;;16.03;3.60;;;7.70;1.00;;;;;;5012125;28;20196;-63
2022/11/25 02:59:02;;;;;;;11.33;3.43;;;7.80;1.00;;;;;;5027216;28;20180;-62
2022/11/25 03:01:30;;;;;;;12.77;3.53;;;7.70;1.00;;;;;;5028707;28;20547;-62
2022/11/25 03:03:58;;;;;;;12.87;3.97;;;7.80;1.00;;;;;;5030387;28;20273;-62
2022/11/25 03:06:27;;;;;;;14.20;3.43;;;7.80;1.00;;;;;;5029780;28;20587;-62
2022/11/25 03:08:54;;;;;;;10.00;3.03;;;7.80;1.00;;;;;;5028906;28;20243;-62
2022/11/25 03:12:17;;;;;;;14.10;2.97;;;7.80;1.00;;;;;;5030976;28;20208;-62
2022/11/25 03:14:12;;;;;;;15.13;3.77;;;8.00;1.00;;;;;;5032074;28;20228;-63
2022/11/25 03:16:41;;;;;;;9.27;3.00;;;8.00;1.00;;;;;;5028906;28;20276;-61
2022/11/25 03:19:08;;;;;;;11.27;3.27;;;8.10;1.00;;;;;;5030035;28;20213;-62
2022/11/25 03:21:35;;;;;;;10.73;3.30;;;8.10;1.00;;;;;;5026134;28;20210;-63
2022/11/25 03:24:02;;;;;;;13.20;3.60;;;8.10;1.00;;;;;;5017791;28;20208;-62
2022/11/25 03:26:29;;;;;;;8.93;2.80;;;8.00;1.00;;;;;;5043045;28;20197;-63
2022/11/25 03:28:56;;;;;;;14.93;3.80;;;7.90;1.00;;;;;;5011750;28;20240;-62
2022/11/25 03:31:23;;;;;;;11.80;3.50;;;8.00;1.00;;;;;;5026909;28;22124;-62
2022/11/25 03:33:50;;;;;;;13.23;3.60;;;7.90;1.00;;;;;;5027089;28;20318;-61
2022/11/25 03:36:17;;;;;;;18.97;3.80;;;8.00;1.00;;;;;;5045537;28;20578;-62
2022/11/25 03:38:44;;;;;;;13.00;3.10;;;8.00;1.00;;;;;;5027889;28;20192;-62
2022/11/25 03:41:10;;;;;;;7.40;2.90;;;8.00;1.00;;;;;;5013285;28;20666;-65
2022/11/25 03:43:37;;;;;;;12.27;2.87;;;8.00;1.00;;;;;;5028514;28;20894;-64
2022/11/25 03:46:05;;;;;;;8.93;2.93;;;7.90;1.00;;;;;;5032083;28;20196;-65
2022/11/25 03:48:32;;;;;;;13.00;2.90;;;7.70;1.00;;;;;;5030554;28;20295;-64
2022/11/25 03:50:59;;;;;;;15.97;3.53;;;7.90;1.00;;;;;;5025812;28;20199;-63
2022/11/25 03:53:27;;;;;;;12.57;2.83;;;8.10;1.00;;;;;;5031704;28;20710;-64
2022/11/25 03:55:54;;;;;;;11.47;3.10;;;8.10;1.00;;;;;;5030109;28;20188;-60
2022/11/25 03:58:24;;;;;;;13.87;3.53;;;8.20;1.00;;;;;;5047883;28;20206;-59
2022/11/25 04:00:51;;;;;;;14.43;3.40;;;8.30;1.00;;;;;;5029114;28;20228;-64
2022/11/25 04:03:18;;;;;;;10.70;3.57;;;8.20;1.00;;;;;;5026215;28;20200;-64
2022/11/25 04:05:45;;;;;;;13.07;3.33;;;8.20;1.00;;;;;;5030802;28;20200;-63
2022/11/25 04:08:12;;;;;;;11.43;3.03;;;8.20;1.00;;;;;;5035120;28;20212;-62
2022/11/25 04:10:39;;;;;;;11.17;3.10;;;8.40;1.00;;;;;;5031509;28;20219;-64
2022/11/25 04:13:08;;;;;;;14.17;4.00;;;8.50;1.00;;;;;;5034742;28;20215;-62
2022/11/25 04:15:44;;;;;;;12.33;3.57;;;8.70;1.00;;;;;;5015563;28;20398;-62
2022/11/25 04:18:13;;;;;;;10.33;2.87;;;8.70;1.00;;;;;;5032603;28;20196;-62
2022/11/25 04:20:41;;;;;;;14.93;3.80;;;8.70;1.00;;;;;;5030310;28;20309;-63
2022/11/25 04:23:10;;;;;;;12.40;3.23;;;8.60;1.00;;;;;;5014188;28;20287;-63
2022/11/25 04:25:43;;;;;;;10.27;4.23;;;8.70;1.00;;;;;;5033202;28;20187;-65
2022/11/25 04:28:21;;;;;;;13.40;4.20;;;8.50;1.00;;;;;;5013604;28;20575;-65
2022/11/25 04:30:48;;;;;;;10.77;3.47;;;8.30;1.00;;;;;;5029723;28;20622;-65
2022/11/25 04:33:17;;;;;;;15.00;4.90;;;8.30;1.00;;;;;;5024290;28;20209;-64
2022/11/25 04:35:46;;;;;;;14.17;4.90;;;8.40;1.00;;;;;;5034073;28;20339;-65
2022/11/25 04:38:13;;;;;;;12.80;7.23;;;8.40;1.00;;;;;;5032556;28;20211;-65
2022/11/25 04:40:41;;;;;;;15.03;5.20;;;8.40;1.00;;;;;;5029289;28;20336;-64
2022/11/25 04:43:20;;;;;;;16.97;5.17;;;8.50;1.00;;;;;;5028928;28;20676;-66
2022/11/25 04:45:53;;;;;;;16.67;7.40;;;8.50;1.00;;;;;;5045250;28;20195;-64
2022/11/25 04:48:40;;;;;;;12.23;5.10;;;8.40;1.00;;;;;;5033246;28;20197;-63
2022/11/25 04:51:08;;;;;;;12.93;4.50;;;8.40;1.00;;;;;;5015891;28;20730;-64
2022/11/25 04:53:34;;;;;;;11.80;3.90;;;8.30;1.00;;;;;;5017354;28;20868;-64
2022/11/25 04:56:01;;;;;;;8.60;4.30;;;8.20;1.00;;;;;;5014409;28;20196;-62
2022/11/25 05:01:19;;;;;;;9.53;3.40;;;8.40;1.00;;;;;;5026137;28;20200;-64
2022/11/25 05:03:50;;;;;;;10.30;4.07;;;8.20;1.00;;;;;;5014757;28;20206;-64
2022/11/25 05:06:24;;;;;;;13.33;4.03;;;8.30;1.00;;;;;;5043107;28;20791;-62
2022/11/25 05:08:52;;;;;;;15.73;4.43;;;8.40;1.00;;;;;;5014530;28;20200;-63
2022/11/25 05:11:21;;;;;;;13.83;3.43;;;8.60;1.00;;;;;;5027542;28;20204;-64
2022/11/25 05:13:49;;;;;;;13.97;5.97;;;8.60;1.00;;;;;;5026523;28;20297;-66
2022/11/25 05:16:16;;;;;;;9.80;3.07;;;8.70;1.00;;;;;;5027038;28;20294;-62
2022/11/25 05:18:44;;;;;;;9.43;3.23;;;8.80;1.00;;;;;;5028353;28;20199;-63
2022/11/25 05:21:11;;;;;;;16.43;3.57;;;8.90;1.00;;;;;;5027660;28;20200;-62
2022/11/25 05:23:40;;;;;;;14.80;3.47;;;8.90;1.00;;;;;;5035426;28;20227;-63
2022/11/25 05:26:07;;;;;;;16.43;4.80;;;8.60;1.00;;;;;;5005847;28;20824;-62
2022/11/25 05:28:38;;;;;;;12.67;3.90;;;8.40;59.90;;;;;;5025312;28;20282;-63
2022/11/25 05:31:06;;;;;;;12.50;3.17;;;8.30;99.90;;;;;;5017695;28;20248;-63
2022/11/25 05:33:33;;;;;;;14.17;3.47;;;8.20;99.90;;;;;;5015532;28;20216;-63
2022/11/25 05:36:02;;;;;;;10.57;3.13;;;8.10;99.90;;;;;;5031428;28;20192;-63
2022/11/25 05:38:35;;;;;;;13.90;4.20;;;8.20;99.90;;;;;;5003598;28;20287;-63
2022/11/25 05:41:06;;;;;;;10.40;3.40;;;8.20;99.90;;;;;;5034647;28;20212;-63
2022/11/25 05:43:34;;;;;;;14.17;3.40;;;8.20;99.90;;;;;;5033546;28;20196;-63
2022/11/25 05:46:08;;;;;;;15.20;3.57;;;8.20;99.90;;;;;;5000561;28;20521;-63
2022/11/25 05:48:41;;;;;;;17.37;3.57;;;8.20;99.90;;;;;;5044514;28;20199;-63
2022/11/25 05:51:08;;;;;;;16.93;5.83;;;8.20;99.90;;;;;;5010840;28;20203;-64
2022/11/25 05:53:35;;;;;;;15.70;4.10;;;8.10;99.90;;;;;;5025799;28;20221;-63
2022/11/25 05:56:05;;;;;;;17.80;5.20;;;8.20;99.90;;;;;;5028727;28;20209;-64
2022/11/25 05:58:53;;;;;;;15.97;3.47;;;8.20;99.90;;;;;;5028482;28;20245;-62
2022/11/25 06:01:22;;;;;;;11.43;3.63;;;8.20;99.90;;;;;;5030100;28;20319;-63
2022/11/25 06:03:49;;;;;;;10.07;3.90;;;8.20;99.90;;;;;;5009296;28;20247;-63
2022/11/25 06:06:17;;;;;;;18.53;4.50;;;8.20;99.90;;;;;;5013837;28;20227;-63
2022/11/25 06:08:45;;;;;;;15.87;4.47;;;8.20;99.90;;;;;;5024804;28;20196;-62
2022/11/25 06:11:14;;;;;;;13.33;3.60;;;8.20;99.90;;;;;;5031076;28;20195;-64
2022/11/25 06:13:43;;;;;;;16.77;3.57;;;8.20;99.90;;;;;;5020260;28;20240;-63
2022/11/25 06:16:13;;;;;;;14.63;4.73;;;8.10;99.90;;;;;;5018597;28;20498;-64
2022/11/25 06:18:40;;;;;;;13.20;4.37;;;8.20;99.90;;;;;;5025618;28;20273;-62
2022/11/25 06:21:09;;;;;;;15.10;4.80;;;8.20;99.90;;;;;;5027735;28;20303;-62
2022/11/25 06:23:37;;;;;;;16.60;4.53;;;8.20;99.90;;;;;;5031717;28;20200;-63
2022/11/25 06:26:14;;;;;;;12.93;4.50;;;8.20;99.90;;;;;;5032131;28;20192;-63
2022/11/25 06:28:42;;;;;;;17.67;4.60;;;8.20;99.90;;;;;;5028094;28;20242;-62
2022/11/25 06:31:15;;;;;;;11.67;3.60;;;8.30;99.90;;;;;;5013953;28;20663;-64
2022/11/25 06:33:53;;;;;;;15.13;3.93;;;8.20;99.90;;;;;;5012401;28;20216;-64
2022/11/25 06:36:21;;;;;;;17.30;5.73;;;8.30;99.90;;;;;;5022351;28;20211;-64
2022/11/25 06:38:51;;;;;;;16.87;4.53;;;8.30;99.90;;;;;;5030466;28;20582;-63
2022/11/25 06:41:19;;;;;;;9.60;3.30;;;8.40;99.90;;;;;;5031449;28;20191;-62
2022/11/25 06:43:46;;;;;;;14.73;4.00;;;8.40;99.90;;;;;;5028014;28;20195;-63
2022/11/25 06:46:15;;;;;;;15.07;4.63;;;8.40;99.90;;;;;;5026573;28;20219;-62
2022/11/25 06:48:48;;;;;;;12.47;3.83;;;8.40;99.90;;;;;;5033292;28;20646;-62
2022/11/25 06:51:15;;;;;;;12.60;4.37;;;8.40;99.90;;;;;;5028014;28;20207;-62
2022/11/25 06:53:43;;;;;;;12.93;3.50;;;8.50;99.90;;;;;;5017327;28;20325;-63
2022/11/25 06:56:24;;;;;;;12.73;3.80;;;8.40;99.90;;;;;;5025672;28;20287;-61
2022/11/25 06:58:52;;;;;;;12.10;4.27;;;8.50;95.20;;;;;;5029572;28;20275;-62
2022/11/25 07:01:22;;;;;;;13.60;3.53;;;8.50;83.10;;;;;;5029023;28;20198;-62
2022/11/25 07:03:56;;;;;;;15.67;4.00;;;8.50;81.10;;;;;;5026138;28;20207;-64
2022/11/25 07:06:24;;;;;;;11.03;3.33;;;8.50;77.50;;;;;;5006366;28;20189;-62
2022/11/25 07:08:51;;;;;;;13.00;4.93;;;8.60;73.70;;;;;;5013560;28;20197;-63
2022/11/25 07:11:27;;;;;;;11.97;3.67;;;8.40;99.90;;;;;;5028944;28;20323;-61
2022/11/25 07:13:59;;;;;;;16.87;4.53;;;8.60;69.60;;;;;;5032968;28;20257;-63
2022/11/25 07:16:26;;;;;;;9.87;4.30;;;8.60;66.20;;;;;;5030877;28;20192;-63
2022/11/25 07:18:54;;;;;;;14.70;3.90;;;8.50;90.50;;;;;;5022311;28;20216;-61
2022/11/25 07:21:23;;;;;;;12.77;5.97;;;8.50;99.90;;;;;;5026504;28;20196;-63
2022/11/25 07:23:51;;;;;;;14.40;4.83;;;8.40;1.00;;;;;;5024741;28;20191;-62
2022/11/25 07:26:21;;;;;;;14.00;4.23;;;8.30;99.90;;;;;;5028678;28;20196;-61
2022/11/25 07:28:50;;;;;;;16.47;4.63;;;8.10;99.90;;;;;;5027621;28;20231;-64
2022/11/25 07:31:21;;;;;;;17.27;4.30;;;8.00;99.90;;;;;;5032125;28;20247;-63
2022/11/25 07:34:12;;;;;;;15.80;3.97;;;7.90;99.90;;;;;;5030675;28;20680;-62
2022/11/25 07:36:39;;;;;;;13.50;3.57;;;7.90;99.90;;;;;;5012167;28;20278;-65
2022/11/25 07:39:19;;;;;;;16.87;4.10;;;7.80;99.90;;;;;;5030659;28;20193;-64
2022/11/25 07:41:48;;;;;;;14.63;4.23;;;7.80;94.50;;;;;;5026210;28;20187;-64
2022/11/25 07:44:15;;;;;;;18.70;4.40;;;7.80;1.00;;;;;;5023935;28;22148;-62
2022/11/25 07:46:51;;;;;;;16.23;4.37;;;7.80;99.90;;;;;;5013562;28;20301;-65
2022/11/25 07:49:21;;;;;;;16.10;4.77;;;7.90;99.90;;;;;;5026488;28;21209;-65
2022/11/25 07:52:03;;;;;;;22.80;6.47;;;7.90;99.90;;;;;;5024423;28;20331;-64
2022/11/25 07:54:32;;;;;;;12.53;4.73;;;7.90;99.90;;;;;;5024063;28;20316;-64
2022/11/25 07:56:59;;;;;;;13.27;4.57;;;8.00;99.90;;;;;;5028939;28;20718;-63
2022/11/25 07:59:26;;;;;;;14.87;4.43;;;7.90;99.90;;;;;;5032706;28;20661;-63
2022/11/25 08:01:54;;;;;;;12.07;4.50;;;8.00;99.90;;;;;;5024485;28;20271;-65
2022/11/25 08:04:22;;;;;;;18.13;5.17;;;8.00;99.90;;;;;;5026454;28;20925;-65
2022/11/25 08:06:51;;;;;;;11.40;4.60;;;8.00;99.90;;;;;;5028371;28;20753;-65
2022/11/25 08:09:21;;;;;;;16.07;5.47;;;8.00;75.10;;;;;;5039666;28;20343;-65
2022/11/25 08:11:49;;;;;;;16.27;5.40;;;8.00;1.00;;;;;;5030102;28;20192;-64
2022/11/25 08:14:16;;;;;;;17.90;5.97;;;8.00;1.00;;;;;;5014065;28;20211;-64
2022/11/25 08:16:43;;;;;;;19.53;5.50;;;8.10;1.00;;;;;;5024584;28;20266;-65
2022/11/25 08:19:14;;;;;;;12.97;4.63;;;8.10;99.90;;;;;;5027887;28;20635;-64
2022/11/25 08:21:41;;;;;;;11.33;4.90;;;8.10;1.00;;;;;;5030731;28;20228;-65
2022/11/25 08:24:17;;;;;;;16.53;4.77;;;8.10;99.90;;;;;;5023312;28;20446;-64
2022/11/25 08:26:44;;;;;;;15.27;5.10;;;8.20;1.00;;;;;;5030647;28;20223;-65
2022/11/25 08:29:17;;;;;;;15.50;5.13;;;8.20;99.90;;;;;;5025491;28;20278;-65
2022/11/25 08:31:44;;;;;;;17.77;5.47;;;8.30;99.90;;;;;;5012482;28;20192;-66
2022/11/25 08:34:20;;;;;;;15.23;6.73;;;8.30;99.90;;;;;;5029207;28;20212;-65
2022/11/25 08:36:49;;;;;;;20.00;5.00;;;8.30;94.80;;;;;;5030276;28;20195;-64
2022/11/25 08:39:17;;;;;;;10.23;4.20;;;8.40;99.90;;;;;;5023269;28;20490;-65
2022/11/25 08:42:05;;;;;;;16.37;4.60;;;8.40;27.20;;;;;;5030714;28;20687;-64
2022/11/25 08:44:33;;;;;;;16.57;4.10;;;8.40;1.00;;;;;;5045264;28;20275;-65
2022/11/25 08:46:59;;;;;;;16.73;4.77;;;8.50;1.00;;;;;;5012668;28;20262;-65
2022/11/25 08:49:29;;;;;;;10.50;4.13;;;8.50;1.00;;;;;;5033274;28;20245;-63
2022/11/25 08:51:59;;;;;;;9.47;3.73;;;8.50;1.00;;;;;;5032564;28;20192;-64
2022/11/25 08:54:26;;;;;;;13.47;4.90;;;8.60;1.00;;;;;;5033756;28;20223;-64
2022/11/25 08:56:53;;;;;;;10.30;3.83;;;8.60;1.00;;;;;;5035151;28;20196;-64
2022/11/25 08:59:21;;;;;;;12.43;3.97;;;8.60;1.00;;;;;;5033651;28;20199;-64
2022/11/25 09:01:48;;;;;;;10.37;4.47;;;8.50;1.00;;;;;;5030062;28;20805;-65
2022/11/25 09:04:15;;;;;;;14.67;4.87;;;8.50;1.00;;;;;;5031456;28;20204;-64
2022/11/25 09:06:42;;;;;;;9.20;4.43;;;8.60;1.00;;;;;;5026960;28;20782;-64
2022/11/25 09:09:09;;;;;;;13.73;4.03;;;8.70;1.00;;;;;;5045637;28;20293;-64
2022/11/25 09:11:36;;;;;;;10.67;4.50;;;8.80;99.90;;;;;;5031144;28;20207;-60
2022/11/25 09:14:03;;;;;;;11.20;3.77;;;8.90;5.80;;;;;;5032821;28;20694;-61
2022/11/25 09:16:30;;;;;;;8.70;4.13;;;8.90;1.00;;;;;;5033475;28;20202;-61
2022/11/25 09:18:58;;;;;;;9.80;4.13;;;9.00;1.00;;;;;;5036180;28;20200;-61
2022/11/25 09:21:26;;;;;;;11.30;4.00;;;9.10;1.00;;;;;;5036384;28;20223;-60
2022/11/25 09:23:53;;;;;;;10.17;4.00;;;9.10;1.00;;;;;;5036262;28;20183;-62
2022/11/25 09:26:26;;;;;;;11.20;3.87;;;9.10;1.00;;;;;;5032653;28;20806;-60
2022/11/25 09:28:54;;;;;;;10.03;3.57;;;9.20;1.00;;;;;;5034753;28;20231;-60
2022/11/25 09:31:21;;;;;;;11.93;3.63;;;9.20;1.00;;;;;;5035839;28;20584;-60
2022/11/25 09:33:48;;;;;;;11.73;4.10;;;9.30;1.00;;;;;;5008347;28;20687;-60
2022/11/25 09:36:17;;;;;;;9.43;4.00;;;9.30;99.90;;;;;;5032616;28;20200;-61
2022/11/25 09:38:44;;;;;;;10.30;3.37;;;9.30;1.00;;;;;;5014716;28;20215;-60
2022/11/25 09:46:40;;;;;;;12.07;4.30;;;9.40;99.90;;;;;;5034650;28;20278;-61
2022/11/25 09:47:32;;;;;;;12.73;3.90;;;9.80;99.90;;;;;;5031893;28;20249;-60
2022/11/25 09:50:46;;;;;;;11.30;3.77;;;12.90;2.10;;;;;;5016918;28;20192;-60
2022/11/25 09:53:22;;;;;;;6.73;2.93;;;16.20;1.00;;;;;;5020321;28;20249;-61
2022/11/25 09:55:52;;;;;;;8.60;3.03;;;17.70;1.00;;;;;;5031635;28;20203;-60
2022/11/25 09:58:34;;;;;;;5.90;2.72;;;17.00;1.00;;;;;;5030167;28;20742;-61
2022/11/25 10:01:12;;;;;;;7.70;2.78;;;19.00;1.00;;;;;;5015891;28;20206;-60
2022/11/25 10:03:52;;;;;;;8.60;2.92;;;20.00;1.00;;;;;;5031494;28;20208;-61
2022/11/25 10:06:22;;;;;;;7.68;2.92;;;20.40;1.00;;;;;;5017451;28;20701;-61
2022/11/25 10:09:00;;;;;;;6.70;2.58;;;21.50;1.00;;;;;;5033950;28;20621;-62
2022/11/25 10:11:52;;;;;;;8.88;2.72;;;20.40;1.00;;;;;;5032738;28;20199;-61
2022/11/25 10:14:29;;;;;;;8.30;2.80;;;19.60;1.00;;;;;;5017569;28;20239;-61
2022/11/25 10:17:08;;;;;;;9.98;2.90;;;19.40;1.00;;;;;;5035130;28;21068;-61
2022/11/25 10:19:44;;;;;;;8.20;2.72;;;20.30;1.00;;;;;;5034671;28;20722;-61
2022/11/25 10:22:25;;;;;;;10.35;2.70;;;21.80;1.00;;;;;;5030452;28;20555;-60
2022/11/25 10:24:59;;;;;;;5.32;2.53;;;22.60;1.00;;;;;;5033674;28;20219;-63
2022/11/25 10:27:50;;;;;;;8.70;2.90;;;21.90;1.00;;;;;;5033679;28;20746;-61
2022/11/25 10:30:20;;;;;;;7.55;2.58;;;20.60;1.00;;;;;;5030982;28;20293;-62
2022/11/25 10:32:52;;;;;;;4.80;1.92;;;19.70;1.00;;;;;;5030701;28;20191;-62
2022/11/25 10:35:34;;;;;;;6.60;2.67;;;22.20;1.00;;;;;;5031975;28;20293;-61
2022/11/25 10:38:04;;;;;;;10.95;2.97;;;22.50;1.00;;;;;;5030920;28;20192;-62
2022/11/25 10:40:31;;;;;;;7.10;2.60;;;21.50;1.00;;;;;;5007648;28;20212;-60
2022/11/25 10:43:01;;;;;;;8.05;2.80;;;20.70;1.00;;;;;;5034700;28;20226;-61
2022/11/25 10:45:36;;;;;;;6.22;3.10;;;20.50;1.00;;;;;;5031517;28;20759;-61
2022/11/25 10:48:13;;;;;;;7.43;2.63;;;21.40;1.00;;;;;;5030315;28;20270;-61
2022/11/25 10:50:58;;;;;;;8.32;2.70;;;21.60;1.00;;;;;;5029845;28;20192;-61
2022/11/25 10:53:26;;;;;;;7.30;2.90;;;20.30;1.00;;;;;;5034014;28;20202;-62
2022/11/25 10:55:57;;;;;;;8.48;2.70;;;22.00;1.00;;;;;;5033156;28;20214;-62
2022/11/25 10:58:30;;;;;;;5.40;2.72;;;22.70;1.00;;;;;;5027087;28;20196;-61
2022/11/25 11:01:05;;;;;;;6.13;2.55;;;23.70;1.00;;;;;;5017919;28;20664;-62
2022/11/25 11:03:33;;;;;;;6.55;2.65;;;21.20;1.00;;;;;;5024952;28;20207;-62
2022/11/25 11:06:00;;;;;;;6.25;2.47;;;21.70;1.00;;;;;;5028917;28;20207;-61
2022/11/25 11:08:39;;;;;;;7.63;2.85;;;22.60;1.00;;;;;;5027091;28;20311;-61
2022/11/25 11:11:21;;;;;;;8.40;2.35;;;23.00;1.00;;;;;;5024301;28;20358;-61
2022/11/25 11:13:56;;;;;;;6.65;2.30;;;21.90;1.00;;;;;;5020557;28;20193;-62
2022/11/25 11:16:32;;;;;;;7.95;3.08;;;21.40;1.00;;;;;;5010177;28;20216;-61
2022/11/25 11:18:59;;;;;;;9.80;2.80;;;18.60;1.00;;;;;;5020087;28;20212;-61
2022/11/25 11:21:33;;;;;;;6.93;2.50;;;19.70;1.00;;;;;;5009421;28;20212;-61
2022/11/25 11:24:02;;;;;;;6.95;2.63;;;20.50;1.00;;;;;;5022330;28;20623;-63
2022/11/25 11:26:34;;;;;;;6.47;2.65;;;22.20;1.00;;;;;;5029401;28;21176;-61
2022/11/25 11:29:13;;;;;;;5.35;2.40;;;22.30;1.00;;;;;;5028996;28;20324;-61
2022/11/25 11:31:47;;;;;;;7.85;2.60;;;22.00;1.00;;;;;;5025879;28;20199;-60
2022/11/25 11:34:54;;;;;;;8.68;2.53;;;21.80;1.00;;;;;;5011810;28;20219;-60
2022/11/25 11:37:42;;;;;;;8.57;2.50;;;20.40;1.00;;;;;;5032612;28;20200;-61
2022/11/25 11:40:28;;;;;;;5.70;2.28;;;20.80;1.00;;;;;;5018045;28;20300;-61
2022/11/25 11:43:04;;;;;;;5.53;2.00;;;20.90;1.00;;;;;;5027825;28;20197;-62
2022/11/25 11:45:48;;;;;;;4.55;2.10;;;21.10;1.00;;;;;;5031125;28;20187;-62
2022/11/25 11:48:27;;;;;;;6.03;2.00;;;19.70;1.00;;;;;;4999659;28;20199;-62
2022/11/25 11:51:21;;;;;;;4.75;2.28;;;19.40;1.00;;;;;;5000358;28;20660;-61
2022/11/25 11:54:08;;;;;;;6.75;2.15;;;18.30;1.00;;;;;;5023764;28;20184;-61
2022/11/25 11:56:48;;;;;;;5.03;2.00;;;18.30;1.00;;;;;;5026646;28;20261;-61
2022/11/25 11:59:45;;;;;;;6.63;2.30;;;18.70;1.00;;;;;;5022799;28;20334;-59
2022/11/25 12:02:36;;;;;;;6.60;2.45;;;17.40;1.00;;;;;;5028861;28;20192;-63
2022/11/25 12:05:08;;;;;;;5.55;2.25;;;17.00;1.00;;;;;;5032153;28;20242;-61
2022/11/25 12:07:41;;;;;;;10.38;2.50;;;16.50;1.00;;;;;;5029118;28;20223;-61
2022/11/25 12:10:13;;;;;;;6.28;2.15;;;16.10;1.00;;;;;;5028436;28;20223;-61
2022/11/25 12:13:04;;;;;;;6.50;2.30;;;16.90;1.00;;;;;;5027243;28;20211;-61
2022/11/25 12:16:06;;;;;;;8.38;2.03;;;16.70;1.00;;;;;;5026366;28;20696;-61
2022/11/25 12:18:52;;;;;;;5.25;2.38;;;16.60;1.00;;;;;;5030241;28;20721;-61
2022/11/25 12:21:31;;;;;;;7.40;2.65;;;16.10;1.00;;;;;;5021533;28;20191;-63
2022/11/25 12:24:16;;;;;;;7.72;2.40;;;15.20;1.00;;;;;;5034659;28;20761;-60
2022/11/25 12:26:53;;;;;;;6.68;2.55;;;14.20;1.00;;;;;;5016786;28;20249;-60
2022/11/25 12:29:43;;;;;;;7.22;2.38;;;13.70;1.00;;;;;;5015481;28;20325;-61
2022/11/25 12:32:48;;;;;;;6.53;2.47;;;13.90;1.00;;;;;;5012678;28;20204;-61
2022/11/25 12:35:46;;;;;;;6.57;2.38;;;14.60;1.00;;;;;;5031176;28;20478;-60
2022/11/25 12:38:28;;;;;;;6.20;2.30;;;14.40;1.00;;;;;;5032501;28;20194;-60
2022/11/25 12:41:07;;;;;;;10.40;2.47;;;14.70;1.00;;;;;;5014614;28;20271;-61
2022/11/25 12:43:42;;;;;;;10.75;2.83;;;15.00;1.00;;;;;;5030336;28;20191;-60
2022/11/25 12:46:12;;;;;;;11.38;3.22;;;14.70;1.00;;;;;;5045400;28;20720;-61
2022/11/25 12:48:41;;;;;;;7.85;2.60;;;15.10;1.00;;;;;;5031246;28;20196;-61
2022/11/25 12:51:35;;;;;;;17.13;2.95;;;15.60;1.00;;;;;;5022170;28;20195;-62
2022/11/25 12:54:13;;;;;;;5.82;2.85;;;15.50;1.00;;;;;;5023844;28;21147;-66
2022/11/25 12:56:53;;;;;;;9.63;2.92;;;15.20;1.00;;;;;;5029137;28;20212;-66
2022/11/25 12:59:52;;;;;;;8.02;2.55;;;15.00;1.00;;;;;;5031759;28;20840;-61
2022/11/25 13:03:18;;;;;;;10.40;3.03;;;15.20;1.00;;;;;;5028072;28;20204;-59
2022/11/25 13:06:30;;;;;;;11.60;3.47;;;13.80;1.00;;;;;;5018541;28;20211;-60
2022/11/25 13:09:00;;;;;;;8.73;3.50;;;13.20;1.00;;;;;;5034121;28;20652;-60
2022/11/25 13:11:39;;;;;;;11.00;3.67;;;13.00;1.00;;;;;;5023650;28;20195;-60
2022/11/25 13:14:21;;;;;;;11.57;3.47;;;12.70;1.00;;;;;;5032559;28;20559;-61
2022/11/25 13:16:50;;;;;;;11.63;3.30;;;12.80;1.00;;;;;;5029207;28;20496;-59
2022/11/25 13:19:19;;;;;;;11.33;3.27;;;12.60;1.00;;;;;;5026433;28;20225;-61
2022/11/25 13:22:03;;;;;;;9.27;3.23;;;12.50;1.00;;;;;;5028051;28;20549;-61
2022/11/25 13:24:38;;;;;;;10.57;4.90;;;12.40;1.00;;;;;;5029883;28;20188;-62
2022/11/25 13:27:28;;;;;;;10.73;3.40;;;12.50;1.00;;;;;;5033988;28;20603;-60
2022/11/25 13:29:55;;;;;;;10.43;3.70;;;12.50;1.00;;;;;;5035277;28;20303;-59
2022/11/25 13:32:26;;;;;;;18.63;3.83;;;12.60;1.00;;;;;;5026656;28;20247;-60
2022/11/25 13:35:21;;;;;;;7.80;2.97;;;12.50;1.00;;;;;;5034784;28;20188;-67